TAF

Looking Back 6 Hours

Worst Weather Category
LocationTimeVisiblityCeilingWeatherWind SpeedWind Gust
KPBF281136Z64000NONE E 8NA NA

  • TAFPBF TAF KPBF 281136Z 2812/2912 36005KT P6SM SCT040
          FM281400 02005KT P6SM BKN040
          FM281700 05007KT P6SM BKN050
          FM282000 09008KT P6SM SCT050 SCT250 =